sensor_id;sensor_type;location;lat;lon;timestamp;P1;durP1;ratioP1;P2;durP2;ratioP2
21018;SDS011;10667;51.056;3.732;2022-07-31T00:00:28;4.95;;;2.95;;
21018;SDS011;10667;51.056;3.732;2022-07-31T00:02:55;3.55;;;2.40;;
21018;SDS011;10667;51.056;3.732;2022-07-31T00:05:22;3.55;;;2.30;;
21018;SDS011;10667;51.056;3.732;2022-07-31T00:07:48;4.32;;;2.60;;
21018;SDS011;10667;51.056;3.732;2022-07-31T00:10:14;4.80;;;2.47;;
21018;SDS011;10667;51.056;3.732;2022-07-31T00:12:40;6.47;;;2.70;;
21018;SDS011;10667;51.056;3.732;2022-07-31T00:15:06;5.85;;;2.35;;
21018;SDS011;10667;51.056;3.732;2022-07-31T00:17:40;2.67;;;2.15;;
21018;SDS011;10667;51.056;3.732;2022-07-31T00:20:08;9.13;;;2.85;;
21018;SDS011;10667;51.056;3.732;2022-07-31T00:22:37;3.20;;;2.30;;
21018;SDS011;10667;51.056;3.732;2022-07-31T00:25:07;2.75;;;2.17;;
21018;SDS011;10667;51.056;3.732;2022-07-31T00:27:34;5.22;;;2.40;;
21018;SDS011;10667;51.056;3.732;2022-07-31T00:29:59;4.72;;;2.65;;
21018;SDS011;10667;51.056;3.732;2022-07-31T00:32:25;3.05;;;2.45;;
21018;SDS011;10667;51.056;3.732;2022-07-31T00:34:51;4.85;;;2.55;;
21018;SDS011;10667;51.056;3.732;2022-07-31T00:37:16;4.72;;;2.83;;
21018;SDS011;10667;51.056;3.732;2022-07-31T00:39:42;5.32;;;2.83;;
21018;SDS011;10667;51.056;3.732;2022-07-31T00:42:18;4.13;;;2.50;;
21018;SDS011;10667;51.056;3.732;2022-07-31T00:44:45;2.88;;;2.40;;
21018;SDS011;10667;51.056;3.732;2022-07-31T00:47:11;4.68;;;2.75;;
21018;SDS011;10667;51.056;3.732;2022-07-31T00:49:37;5.97;;;2.47;;
21018;SDS011;10667;51.056;3.732;2022-07-31T00:52:03;4.32;;;2.50;;
21018;SDS011;10667;51.056;3.732;2022-07-31T00:54:29;4.90;;;2.53;;
21018;SDS011;10667;51.056;3.732;2022-07-31T00:56:55;3.97;;;2.42;;
21018;SDS011;10667;51.056;3.732;2022-07-31T00:59:21;2.97;;;2.50;;
21018;SDS011;10667;51.056;3.732;2022-07-31T01:01:46;6.28;;;2.33;;
21018;SDS011;10667;51.056;3.732;2022-07-31T01:04:12;6.60;;;2.72;;
21018;SDS011;10667;51.056;3.732;2022-07-31T01:06:40;2.55;;;2.15;;
21018;SDS011;10667;51.056;3.732;2022-07-31T01:09:06;7.03;;;2.40;;
21018;SDS011;10667;51.056;3.732;2022-07-31T01:11:32;4.60;;;2.63;;
21018;SDS011;10667;51.056;3.732;2022-07-31T01:14:06;3.72;;;2.80;;
21018;SDS011;10667;51.056;3.732;2022-07-31T01:16:34;5.65;;;2.67;;
21018;SDS011;10667;51.056;3.732;2022-07-31T01:19:04;5.57;;;2.30;;
21018;SDS011;10667;51.056;3.732;2022-07-31T01:27:36;4.50;;;2.97;;
21018;SDS011;10667;51.056;3.732;2022-07-31T01:30:08;6.03;;;2.83;;
21018;SDS011;10667;51.056;3.732;2022-07-31T01:32:35;4.03;;;2.95;;
21018;SDS011;10667;51.056;3.732;2022-07-31T01:35:06;6.93;;;2.88;;
21018;SDS011;10667;51.056;3.732;2022-07-31T01:37:58;6.70;;;2.75;;
21018;SDS011;10667;51.056;3.732;2022-07-31T01:43:21;6.82;;;3.58;;
21018;SDS011;10667;51.056;3.732;2022-07-31T01:45:50;6.53;;;4.05;;
21018;SDS011;10667;51.056;3.732;2022-07-31T01:48:19;5.95;;;3.90;;
21018;SDS011;10667;51.056;3.732;2022-07-31T01:50:46;9.00;;;3.72;;
21018;SDS011;10667;51.056;3.732;2022-07-31T01:53:15;7.97;;;4.20;;
21018;SDS011;10667;51.056;3.732;2022-07-31T01:55:44;5.75;;;3.10;;
21018;SDS011;10667;51.056;3.732;2022-07-31T01:58:11;3.78;;;2.95;;
21018;SDS011;10667;51.056;3.732;2022-07-31T02:00:39;5.72;;;3.38;;
21018;SDS011;10667;51.056;3.732;2022-07-31T02:03:06;5.53;;;3.45;;
21018;SDS011;10667;51.056;3.732;2022-07-31T02:05:33;5.65;;;3.15;;
21018;SDS011;10667;51.056;3.732;2022-07-31T02:08:00;6.80;;;3.45;;
21018;SDS011;10667;51.056;3.732;2022-07-31T02:10:30;5.13;;;3.70;;
21018;SDS011;10667;51.056;3.732;2022-07-31T02:12:56;5.28;;;3.40;;
21018;SDS011;10667;51.056;3.732;2022-07-31T02:15:24;7.68;;;3.40;;
21018;SDS011;10667;51.056;3.732;2022-07-31T02:17:51;5.53;;;3.55;;
21018;SDS011;10667;51.056;3.732;2022-07-31T02:20:18;5.65;;;3.10;;
21018;SDS011;10667;51.056;3.732;2022-07-31T02:22:45;5.75;;;3.38;;
21018;SDS011;10667;51.056;3.732;2022-07-31T02:25:10;5.63;;;3.70;;
21018;SDS011;10667;51.056;3.732;2022-07-31T02:27:37;6.53;;;3.85;;
21018;SDS011;10667;51.056;3.732;2022-07-31T02:30:05;5.60;;;3.28;;
21018;SDS011;10667;51.056;3.732;2022-07-31T02:32:31;4.75;;;3.22;;
21018;SDS011;10667;51.056;3.732;2022-07-31T02:34:59;3.30;;;2.90;;
21018;SDS011;10667;51.056;3.732;2022-07-31T02:37:26;4.60;;;3.20;;
21018;SDS011;10667;51.056;3.732;2022-07-31T02:39:53;5.38;;;3.20;;
21018;SDS011;10667;51.056;3.732;2022-07-31T02:42:19;5.57;;;3.42;;
21018;SDS011;10667;51.056;3.732;2022-07-31T02:44:46;4.38;;;3.05;;
21018;SDS011;10667;51.056;3.732;2022-07-31T02:47:14;7.82;;;3.63;;
21018;SDS011;10667;51.056;3.732;2022-07-31T02:49:40;5.28;;;3.35;;
21018;SDS011;10667;51.056;3.732;2022-07-31T02:52:07;8.23;;;4.00;;
21018;SDS011;10667;51.056;3.732;2022-07-31T02:54:34;8.68;;;3.83;;
21018;SDS011;10667;51.056;3.732;2022-07-31T02:57:03;6.20;;;3.67;;
21018;SDS011;10667;51.056;3.732;2022-07-31T02:59:29;5.65;;;3.70;;
21018;SDS011;10667;51.056;3.732;2022-07-31T03:01:55;6.78;;;4.18;;
21018;SDS011;10667;51.056;3.732;2022-07-31T03:04:20;6.43;;;4.03;;
21018;SDS011;10667;51.056;3.732;2022-07-31T03:06:46;9.00;;;4.00;;
21018;SDS011;10667;51.056;3.732;2022-07-31T03:09:14;5.55;;;3.88;;
21018;SDS011;10667;51.056;3.732;2022-07-31T03:11:40;6.25;;;3.88;;
21018;SDS011;10667;51.056;3.732;2022-07-31T03:14:07;9.30;;;4.15;;
21018;SDS011;10667;51.056;3.732;2022-07-31T03:16:34;6.47;;;3.70;;
21018;SDS011;10667;51.056;3.732;2022-07-31T03:19:02;8.60;;;5.18;;
21018;SDS011;10667;51.056;3.732;2022-07-31T03:21:29;6.28;;;4.30;;
21018;SDS011;10667;51.056;3.732;2022-07-31T03:23:55;5.15;;;3.75;;
21018;SDS011;10667;51.056;3.732;2022-07-31T03:26:22;7.05;;;4.05;;
21018;SDS011;10667;51.056;3.732;2022-07-31T03:28:49;7.75;;;4.22;;
21018;SDS011;10667;51.056;3.732;2022-07-31T03:31:15;5.45;;;4.00;;
21018;SDS011;10667;51.056;3.732;2022-07-31T03:33:40;6.85;;;3.92;;
21018;SDS011;10667;51.056;3.732;2022-07-31T03:36:06;6.70;;;3.55;;
21018;SDS011;10667;51.056;3.732;2022-07-31T03:38:33;6.95;;;3.88;;
21018;SDS011;10667;51.056;3.732;2022-07-31T03:40:59;6.47;;;4.50;;
21018;SDS011;10667;51.056;3.732;2022-07-31T03:43:25;8.63;;;4.68;;
21018;SDS011;10667;51.056;3.732;2022-07-31T03:45:54;7.40;;;4.45;;
21018;SDS011;10667;51.056;3.732;2022-07-31T03:48:23;8.10;;;4.30;;
21018;SDS011;10667;51.056;3.732;2022-07-31T03:50:50;6.03;;;3.60;;
21018;SDS011;10667;51.056;3.732;2022-07-31T03:53:16;10.27;;;4.75;;
21018;SDS011;10667;51.056;3.732;2022-07-31T03:55:42;7.43;;;4.35;;
21018;SDS011;10667;51.056;3.732;2022-07-31T03:58:09;6.80;;;4.32;;
21018;SDS011;10667;51.056;3.732;2022-07-31T04:00:37;6.85;;;4.57;;
21018;SDS011;10667;51.056;3.732;2022-07-31T04:03:03;5.18;;;4.35;;
21018;SDS011;10667;51.056;3.732;2022-07-31T04:05:31;5.90;;;3.83;;
21018;SDS011;10667;51.056;3.732;2022-07-31T04:07:57;11.00;;;4.40;;
21018;SDS011;10667;51.056;3.732;2022-07-31T04:10:23;6.47;;;3.38;;
21018;SDS011;10667;51.056;3.732;2022-07-31T04:12:49;7.65;;;4.00;;
21018;SDS011;10667;51.056;3.732;2022-07-31T04:15:15;6.65;;;4.20;;
21018;SDS011;10667;51.056;3.732;2022-07-31T04:17:41;7.05;;;4.30;;
21018;SDS011;10667;51.056;3.732;2022-07-31T04:20:07;6.88;;;3.97;;
21018;SDS011;10667;51.056;3.732;2022-07-31T04:22:33;6.30;;;3.70;;
21018;SDS011;10667;51.056;3.732;2022-07-31T04:24:59;6.60;;;3.83;;
21018;SDS011;10667;51.056;3.732;2022-07-31T04:27:24;6.53;;;3.65;;
21018;SDS011;10667;51.056;3.732;2022-07-31T04:29:50;9.57;;;4.55;;
21018;SDS011;10667;51.056;3.732;2022-07-31T04:32:16;5.53;;;4.00;;
21018;SDS011;10667;51.056;3.732;2022-07-31T04:34:41;10.15;;;4.20;;
21018;SDS011;10667;51.056;3.732;2022-07-31T04:37:07;11.63;;;4.55;;
21018;SDS011;10667;51.056;3.732;2022-07-31T04:39:33;9.13;;;4.32;;
21018;SDS011;10667;51.056;3.732;2022-07-31T04:41:59;12.98;;;4.72;;
21018;SDS011;10667;51.056;3.732;2022-07-31T04:44:24;11.38;;;4.57;;
21018;SDS011;10667;51.056;3.732;2022-07-31T04:46:50;6.30;;;3.92;;
21018;SDS011;10667;51.056;3.732;2022-07-31T04:49:16;8.48;;;4.90;;
21018;SDS011;10667;51.056;3.732;2022-07-31T04:51:42;9.40;;;4.38;;
21018;SDS011;10667;51.056;3.732;2022-07-31T04:54:08;8.07;;;4.60;;
21018;SDS011;10667;51.056;3.732;2022-07-31T04:56:34;10.23;;;5.00;;
21018;SDS011;10667;51.056;3.732;2022-07-31T04:59:05;5.93;;;4.00;;
21018;SDS011;10667;51.056;3.732;2022-07-31T05:01:33;8.68;;;4.57;;
21018;SDS011;10667;51.056;3.732;2022-07-31T05:03:59;8.32;;;4.80;;
21018;SDS011;10667;51.056;3.732;2022-07-31T05:09:26;8.55;;;4.72;;
21018;SDS011;10667;51.056;3.732;2022-07-31T05:11:57;6.63;;;4.85;;
21018;SDS011;10667;51.056;3.732;2022-07-31T05:14:23;7.65;;;5.28;;
21018;SDS011;10667;51.056;3.732;2022-07-31T05:16:48;7.75;;;5.00;;
21018;SDS011;10667;51.056;3.732;2022-07-31T05:19:14;8.00;;;5.47;;
21018;SDS011;10667;51.056;3.732;2022-07-31T05:21:41;9.82;;;5.00;;
21018;SDS011;10667;51.056;3.732;2022-07-31T05:24:08;9.45;;;5.43;;
21018;SDS011;10667;51.056;3.732;2022-07-31T05:26:33;13.27;;;6.10;;
21018;SDS011;10667;51.056;3.732;2022-07-31T05:28:59;8.18;;;6.20;;
21018;SDS011;10667;51.056;3.732;2022-07-31T05:31:26;10.45;;;6.00;;
21018;SDS011;10667;51.056;3.732;2022-07-31T05:33:53;9.73;;;5.78;;
21018;SDS011;10667;51.056;3.732;2022-07-31T05:36:19;9.75;;;5.75;;
21018;SDS011;10667;51.056;3.732;2022-07-31T05:38:45;10.32;;;6.80;;
21018;SDS011;10667;51.056;3.732;2022-07-31T05:41:11;9.80;;;6.10;;
21018;SDS011;10667;51.056;3.732;2022-07-31T05:43:37;13.18;;;6.35;;
21018;SDS011;10667;51.056;3.732;2022-07-31T05:46:03;11.90;;;7.35;;
21018;SDS011;10667;51.056;3.732;2022-07-31T05:48:30;10.07;;;6.07;;
21018;SDS011;10667;51.056;3.732;2022-07-31T05:50:57;18.35;;;7.55;;
21018;SDS011;10667;51.056;3.732;2022-07-31T05:53:23;10.10;;;6.60;;
21018;SDS011;10667;51.056;3.732;2022-07-31T05:55:49;11.90;;;6.60;;
21018;SDS011;10667;51.056;3.732;2022-07-31T05:58:16;11.35;;;6.20;;
21018;SDS011;10667;51.056;3.732;2022-07-31T06:00:43;10.65;;;6.40;;
21018;SDS011;10667;51.056;3.732;2022-07-31T06:03:10;13.68;;;7.15;;
21018;SDS011;10667;51.056;3.732;2022-07-31T06:05:37;12.60;;;6.30;;
21018;SDS011;10667;51.056;3.732;2022-07-31T06:08:04;8.77;;;6.00;;
21018;SDS011;10667;51.056;3.732;2022-07-31T06:10:30;9.48;;;6.80;;
21018;SDS011;10667;51.056;3.732;2022-07-31T06:12:55;10.30;;;6.53;;
21018;SDS011;10667;51.056;3.732;2022-07-31T06:15:22;13.27;;;7.15;;
21018;SDS011;10667;51.056;3.732;2022-07-31T06:17:48;11.50;;;6.38;;
21018;SDS011;10667;51.056;3.732;2022-07-31T06:20:14;10.55;;;7.22;;
21018;SDS011;10667;51.056;3.732;2022-07-31T06:22:40;9.95;;;6.45;;
21018;SDS011;10667;51.056;3.732;2022-07-31T06:25:08;12.27;;;7.45;;
21018;SDS011;10667;51.056;3.732;2022-07-31T06:27:34;18.02;;;7.28;;
21018;SDS011;10667;51.056;3.732;2022-07-31T06:30:00;9.02;;;6.60;;
21018;SDS011;10667;51.056;3.732;2022-07-31T06:32:27;10.63;;;6.50;;
21018;SDS011;10667;51.056;3.732;2022-07-31T06:34:53;14.05;;;7.65;;
21018;SDS011;10667;51.056;3.732;2022-07-31T06:37:19;11.48;;;6.38;;
21018;SDS011;10667;51.056;3.732;2022-07-31T06:39:44;11.23;;;6.95;;
21018;SDS011;10667;51.056;3.732;2022-07-31T06:42:10;14.68;;;7.03;;
21018;SDS011;10667;51.056;3.732;2022-07-31T06:44:41;11.80;;;6.82;;
21018;SDS011;10667;51.056;3.732;2022-07-31T06:47:07;14.00;;;6.93;;
21018;SDS011;10667;51.056;3.732;2022-07-31T06:49:33;9.63;;;6.00;;
21018;SDS011;10667;51.056;3.732;2022-07-31T06:51:58;15.73;;;7.18;;
21018;SDS011;10667;51.056;3.732;2022-07-31T06:54:25;10.35;;;6.28;;
21018;SDS011;10667;51.056;3.732;2022-07-31T06:56:50;11.23;;;7.00;;
21018;SDS011;10667;51.056;3.732;2022-07-31T06:59:16;12.70;;;6.22;;
21018;SDS011;10667;51.056;3.732;2022-07-31T07:01:42;11.40;;;6.18;;
21018;SDS011;10667;51.056;3.732;2022-07-31T07:04:07;15.70;;;6.63;;
21018;SDS011;10667;51.056;3.732;2022-07-31T07:06:33;7.65;;;6.07;;
21018;SDS011;10667;51.056;3.732;2022-07-31T07:08:59;10.85;;;6.38;;
21018;SDS011;10667;51.056;3.732;2022-07-31T07:11:24;8.60;;;6.00;;
21018;SDS011;10667;51.056;3.732;2022-07-31T07:13:50;9.18;;;6.18;;
21018;SDS011;10667;51.056;3.732;2022-07-31T07:16:16;10.07;;;6.47;;
21018;SDS011;10667;51.056;3.732;2022-07-31T07:18:44;9.30;;;5.93;;
21018;SDS011;10667;51.056;3.732;2022-07-31T07:21:10;10.88;;;6.05;;
21018;SDS011;10667;51.056;3.732;2022-07-31T07:23:36;11.52;;;6.57;;
21018;SDS011;10667;51.056;3.732;2022-07-31T07:26:02;11.05;;;6.43;;
21018;SDS011;10667;51.056;3.732;2022-07-31T07:28:28;8.88;;;5.55;;
21018;SDS011;10667;51.056;3.732;2022-07-31T07:30:54;9.73;;;6.15;;
21018;SDS011;10667;51.056;3.732;2022-07-31T07:33:19;8.13;;;6.00;;
21018;SDS011;10667;51.056;3.732;2022-07-31T07:35:45;7.93;;;5.47;;
21018;SDS011;10667;51.056;3.732;2022-07-31T07:38:11;10.05;;;5.25;;
21018;SDS011;10667;51.056;3.732;2022-07-31T07:40:36;10.20;;;5.40;;
21018;SDS011;10667;51.056;3.732;2022-07-31T07:43:02;13.10;;;6.00;;
21018;SDS011;10667;51.056;3.732;2022-07-31T07:45:28;8.52;;;5.22;;
21018;SDS011;10667;51.056;3.732;2022-07-31T07:47:53;9.65;;;5.63;;
21018;SDS011;10667;51.056;3.732;2022-07-31T07:50:19;11.52;;;5.50;;
21018;SDS011;10667;51.056;3.732;2022-07-31T07:52:45;7.90;;;5.35;;
21018;SDS011;10667;51.056;3.732;2022-07-31T07:55:11;10.63;;;6.00;;
21018;SDS011;10667;51.056;3.732;2022-07-31T07:57:37;8.82;;;5.85;;
21018;SDS011;10667;51.056;3.732;2022-07-31T08:00:07;11.48;;;5.80;;
21018;SDS011;10667;51.056;3.732;2022-07-31T08:02:34;11.88;;;6.55;;
21018;SDS011;10667;51.056;3.732;2022-07-31T08:05:00;10.85;;;5.90;;
21018;SDS011;10667;51.056;3.732;2022-07-31T08:07:34;11.50;;;5.72;;
21018;SDS011;10667;51.056;3.732;2022-07-31T08:10:00;8.02;;;5.45;;
21018;SDS011;10667;51.056;3.732;2022-07-31T08:12:26;6.35;;;4.70;;
21018;SDS011;10667;51.056;3.732;2022-07-31T08:14:52;9.40;;;5.22;;
21018;SDS011;10667;51.056;3.732;2022-07-31T08:17:18;9.02;;;5.25;;
21018;SDS011;10667;51.056;3.732;2022-07-31T08:19:43;12.45;;;6.13;;
21018;SDS011;10667;51.056;3.732;2022-07-31T08:22:09;9.68;;;5.40;;
21018;SDS011;10667;51.056;3.732;2022-07-31T08:24:35;10.35;;;6.03;;
21018;SDS011;10667;51.056;3.732;2022-07-31T08:27:01;8.25;;;5.57;;
21018;SDS011;10667;51.056;3.732;2022-07-31T08:29:45;8.38;;;5.85;;
21018;SDS011;10667;51.056;3.732;2022-07-31T08:32:11;9.93;;;5.53;;
21018;SDS011;10667;51.056;3.732;2022-07-31T08:34:37;10.43;;;6.07;;
21018;SDS011;10667;51.056;3.732;2022-07-31T08:37:04;10.60;;;5.80;;
21018;SDS011;10667;51.056;3.732;2022-07-31T08:39:31;8.20;;;5.38;;
21018;SDS011;10667;51.056;3.732;2022-07-31T08:41:57;8.80;;;5.68;;
21018;SDS011;10667;51.056;3.732;2022-07-31T08:44:23;8.95;;;6.00;;
21018;SDS011;10667;51.056;3.732;2022-07-31T08:46:49;9.85;;;5.53;;
21018;SDS011;10667;51.056;3.732;2022-07-31T08:49:17;6.13;;;4.93;;
21018;SDS011;10667;51.056;3.732;2022-07-31T08:51:48;7.78;;;5.30;;
21018;SDS011;10667;51.056;3.732;2022-07-31T08:54:14;9.02;;;5.10;;
21018;SDS011;10667;51.056;3.732;2022-07-31T08:56:40;10.68;;;4.72;;
21018;SDS011;10667;51.056;3.732;2022-07-31T08:59:06;6.15;;;4.85;;
21018;SDS011;10667;51.056;3.732;2022-07-31T09:01:32;7.35;;;5.15;;
21018;SDS011;10667;51.056;3.732;2022-07-31T09:03:59;6.28;;;4.13;;
21018;SDS011;10667;51.056;3.732;2022-07-31T09:06:25;7.10;;;4.72;;
21018;SDS011;10667;51.056;3.732;2022-07-31T09:08:51;5.22;;;4.60;;
21018;SDS011;10667;51.056;3.732;2022-07-31T09:11:19;9.93;;;5.03;;
21018;SDS011;10667;51.056;3.732;2022-07-31T09:13:53;6.47;;;4.72;;
21018;SDS011;10667;51.056;3.732;2022-07-31T09:16:20;10.00;;;5.30;;
21018;SDS011;10667;51.056;3.732;2022-07-31T09:18:56;8.13;;;3.80;;
21018;SDS011;10667;51.056;3.732;2022-07-31T09:21:37;6.70;;;4.70;;
21018;SDS011;10667;51.056;3.732;2022-07-31T09:24:04;7.28;;;4.93;;
21018;SDS011;10667;51.056;3.732;2022-07-31T09:26:33;6.47;;;4.18;;
21018;SDS011;10667;51.056;3.732;2022-07-31T09:29:00;8.23;;;4.28;;
21018;SDS011;10667;51.056;3.732;2022-07-31T09:31:32;6.63;;;4.07;;
21018;SDS011;10667;51.056;3.732;2022-07-31T09:34:01;6.32;;;3.80;;
21018;SDS011;10667;51.056;3.732;2022-07-31T09:36:27;5.93;;;3.55;;
21018;SDS011;10667;51.056;3.732;2022-07-31T09:38:53;5.75;;;3.38;;
21018;SDS011;10667;51.056;3.732;2022-07-31T09:41:21;4.68;;;3.50;;
21018;SDS011;10667;51.056;3.732;2022-07-31T09:43:57;5.38;;;3.15;;
21018;SDS011;10667;51.056;3.732;2022-07-31T09:46:24;4.75;;;2.70;;
21018;SDS011;10667;51.056;3.732;2022-07-31T09:48:52;3.72;;;3.15;;
21018;SDS011;10667;51.056;3.732;2022-07-31T09:51:19;5.78;;;3.00;;
21018;SDS011;10667;51.056;3.732;2022-07-31T09:53:47;5.90;;;3.42;;
21018;SDS011;10667;51.056;3.732;2022-07-31T09:56:17;6.70;;;3.55;;
21018;SDS011;10667;51.056;3.732;2022-07-31T09:59:03;6.78;;;2.95;;
21018;SDS011;10667;51.056;3.732;2022-07-31T10:01:30;3.40;;;2.50;;
21018;SDS011;10667;51.056;3.732;2022-07-31T10:04:00;5.90;;;2.50;;
21018;SDS011;10667;51.056;3.732;2022-07-31T10:06:27;5.82;;;2.95;;
21018;SDS011;10667;51.056;3.732;2022-07-31T10:08:56;5.07;;;2.47;;
21018;SDS011;10667;51.056;3.732;2022-07-31T10:11:24;5.78;;;2.63;;
21018;SDS011;10667;51.056;3.732;2022-07-31T10:13:50;4.55;;;2.30;;
21018;SDS011;10667;51.056;3.732;2022-07-31T10:16:20;6.60;;;2.63;;
21018;SDS011;10667;51.056;3.732;2022-07-31T10:18:52;4.78;;;2.60;;
21018;SDS011;10667;51.056;3.732;2022-07-31T10:21:23;3.28;;;2.55;;
21018;SDS011;10667;51.056;3.732;2022-07-31T10:24:02;4.18;;;2.63;;
21018;SDS011;10667;51.056;3.732;2022-07-31T10:26:28;4.22;;;2.50;;
21018;SDS011;10667;51.056;3.732;2022-07-31T10:28:55;4.20;;;2.28;;
21018;SDS011;10667;51.056;3.732;2022-07-31T10:31:21;5.80;;;2.15;;
21018;SDS011;10667;51.056;3.732;2022-07-31T10:33:47;3.83;;;2.17;;
21018;SDS011;10667;51.056;3.732;2022-07-31T10:38:59;3.80;;;2.30;;
21018;SDS011;10667;51.056;3.732;2022-07-31T10:44:33;3.90;;;1.80;;
21018;SDS011;10667;51.056;3.732;2022-07-31T10:47:12;4.55;;;2.00;;
21018;SDS011;10667;51.056;3.732;2022-07-31T10:49:40;6.20;;;2.30;;
21018;SDS011;10667;51.056;3.732;2022-07-31T10:52:07;5.85;;;2.33;;
21018;SDS011;10667;51.056;3.732;2022-07-31T10:54:42;3.60;;;2.20;;
21018;SDS011;10667;51.056;3.732;2022-07-31T10:57:29;4.70;;;2.13;;
21018;SDS011;10667;51.056;3.732;2022-07-31T11:00:06;2.20;;;1.90;;
21018;SDS011;10667;51.056;3.732;2022-07-31T11:02:42;2.88;;;2.00;;
21018;SDS011;10667;51.056;3.732;2022-07-31T11:05:17;6.32;;;2.33;;
21018;SDS011;10667;51.056;3.732;2022-07-31T11:07:47;4.55;;;1.95;;
21018;SDS011;10667;51.056;3.732;2022-07-31T11:10:24;2.80;;;1.90;;
21018;SDS011;10667;51.056;3.732;2022-07-31T11:13:03;2.33;;;2.00;;
21018;SDS011;10667;51.056;3.732;2022-07-31T11:15:34;3.65;;;1.70;;
21018;SDS011;10667;51.056;3.732;2022-07-31T11:18:14;3.60;;;1.85;;
21018;SDS011;10667;51.056;3.732;2022-07-31T11:20:41;3.00;;;1.80;;
21018;SDS011;10667;51.056;3.732;2022-07-31T11:23:12;2.55;;;1.85;;
21018;SDS011;10667;51.056;3.732;2022-07-31T11:25:43;4.07;;;1.70;;
21018;SDS011;10667;51.056;3.732;2022-07-31T11:28:17;3.63;;;1.67;;
21018;SDS011;10667;51.056;3.732;2022-07-31T11:33:30;5.43;;;1.70;;
21018;SDS011;10667;51.056;3.732;2022-07-31T11:38:40;1.30;;;1.20;;
21018;SDS011;10667;51.056;3.732;2022-07-31T11:41:14;1.83;;;1.20;;
21018;SDS011;10667;51.056;3.732;2022-07-31T11:43:42;3.25;;;1.42;;
21018;SDS011;10667;51.056;3.732;2022-07-31T11:46:12;1.90;;;1.20;;
21018;SDS011;10667;51.056;3.732;2022-07-31T11:48:52;1.77;;;1.50;;
21018;SDS011;10667;51.056;3.732;2022-07-31T11:51:19;1.70;;;1.10;;
21018;SDS011;10667;51.056;3.732;2022-07-31T11:53:45;2.33;;;1.20;;
21018;SDS011;10667;51.056;3.732;2022-07-31T11:56:11;1.60;;;1.40;;
21018;SDS011;10667;51.056;3.732;2022-07-31T11:58:44;3.05;;;1.50;;
21018;SDS011;10667;51.056;3.732;2022-07-31T12:01:12;1.90;;;1.17;;
21018;SDS011;10667;51.056;3.732;2022-07-31T12:03:38;2.65;;;1.40;;
21018;SDS011;10667;51.056;3.732;2022-07-31T12:06:04;2.45;;;1.40;;
21018;SDS011;10667;51.056;3.732;2022-07-31T12:08:31;2.22;;;1.35;;
21018;SDS011;10667;51.056;3.732;2022-07-31T12:10:59;4.95;;;1.40;;
21018;SDS011;10667;51.056;3.732;2022-07-31T12:13:25;3.88;;;1.73;;
21018;SDS011;10667;51.056;3.732;2022-07-31T12:18:24;4.47;;;1.58;;
21018;SDS011;10667;51.056;3.732;2022-07-31T12:20:58;4.85;;;1.77;;
21018;SDS011;10667;51.056;3.732;2022-07-31T12:23:25;4.10;;;1.60;;
21018;SDS011;10667;51.056;3.732;2022-07-31T12:26:02;3.47;;;1.77;;
21018;SDS011;10667;51.056;3.732;2022-07-31T12:28:27;3.10;;;1.52;;
21018;SDS011;10667;51.056;3.732;2022-07-31T12:30:56;3.50;;;1.70;;
21018;SDS011;10667;51.056;3.732;2022-07-31T12:33:23;2.85;;;1.30;;
21018;SDS011;10667;51.056;3.732;2022-07-31T12:35:51;2.83;;;1.50;;
21018;SDS011;10667;51.056;3.732;2022-07-31T12:38:36;3.85;;;1.50;;
21018;SDS011;10667;51.056;3.732;2022-07-31T12:41:02;7.15;;;1.85;;
21018;SDS011;10667;51.056;3.732;2022-07-31T12:43:29;3.65;;;1.63;;
21018;SDS011;10667;51.056;3.732;2022-07-31T12:45:55;3.00;;;1.40;;
21018;SDS011;10667;51.056;3.732;2022-07-31T12:48:24;3.80;;;1.48;;
21018;SDS011;10667;51.056;3.732;2022-07-31T12:50:50;3.50;;;1.83;;
21018;SDS011;10667;51.056;3.732;2022-07-31T12:53:16;5.05;;;1.50;;
21018;SDS011;10667;51.056;3.732;2022-07-31T12:55:42;14.48;;;2.10;;
21018;SDS011;10667;51.056;3.732;2022-07-31T12:58:08;7.45;;;1.63;;
21018;SDS011;10667;51.056;3.732;2022-07-31T13:00:34;5.25;;;1.80;;
21018;SDS011;10667;51.056;3.732;2022-07-31T13:02:59;2.88;;;2.05;;
21018;SDS011;10667;51.056;3.732;2022-07-31T13:05:26;2.78;;;1.45;;
21018;SDS011;10667;51.056;3.732;2022-07-31T13:07:51;3.25;;;1.50;;
21018;SDS011;10667;51.056;3.732;2022-07-31T13:10:17;3.67;;;1.70;;
21018;SDS011;10667;51.056;3.732;2022-07-31T13:12:44;3.97;;;1.48;;
21018;SDS011;10667;51.056;3.732;2022-07-31T13:15:14;6.93;;;2.00;;
21018;SDS011;10667;51.056;3.732;2022-07-31T13:17:40;3.97;;;1.67;;
21018;SDS011;10667;51.056;3.732;2022-07-31T13:20:06;2.42;;;1.38;;
21018;SDS011;10667;51.056;3.732;2022-07-31T13:22:32;2.63;;;1.90;;
21018;SDS011;10667;51.056;3.732;2022-07-31T13:24:58;4.40;;;2.13;;
21018;SDS011;10667;51.056;3.732;2022-07-31T13:27:23;6.15;;;2.22;;
21018;SDS011;10667;51.056;3.732;2022-07-31T13:29:49;3.30;;;1.90;;
21018;SDS011;10667;51.056;3.732;2022-07-31T13:32:14;4.13;;;1.45;;
21018;SDS011;10667;51.056;3.732;2022-07-31T13:34:40;4.20;;;1.58;;
21018;SDS011;10667;51.056;3.732;2022-07-31T13:37:06;4.68;;;1.63;;
21018;SDS011;10667;51.056;3.732;2022-07-31T13:39:32;4.65;;;1.58;;
21018;SDS011;10667;51.056;3.732;2022-07-31T13:41:57;4.40;;;1.38;;
21018;SDS011;10667;51.056;3.732;2022-07-31T13:44:23;2.10;;;1.40;;
21018;SDS011;10667;51.056;3.732;2022-07-31T13:46:49;2.65;;;1.23;;
21018;SDS011;10667;51.056;3.732;2022-07-31T13:49:14;3.10;;;1.50;;
21018;SDS011;10667;51.056;3.732;2022-07-31T13:51:40;3.42;;;1.50;;
21018;SDS011;10667;51.056;3.732;2022-07-31T13:54:06;3.63;;;1.40;;
21018;SDS011;10667;51.056;3.732;2022-07-31T13:56:31;2.47;;;1.40;;
21018;SDS011;10667;51.056;3.732;2022-07-31T13:58:57;4.45;;;1.70;;
21018;SDS011;10667;51.056;3.732;2022-07-31T14:01:23;1.92;;;1.15;;
21018;SDS011;10667;51.056;3.732;2022-07-31T14:03:49;6.05;;;1.45;;
21018;SDS011;10667;51.056;3.732;2022-07-31T14:06:14;3.95;;;1.33;;
21018;SDS011;10667;51.056;3.732;2022-07-31T14:08:40;1.98;;;1.08;;
21018;SDS011;10667;51.056;3.732;2022-07-31T14:11:05;2.10;;;1.40;;
21018;SDS011;10667;51.056;3.732;2022-07-31T14:13:31;3.63;;;1.20;;
21018;SDS011;10667;51.056;3.732;2022-07-31T14:15:57;2.67;;;1.58;;
21018;SDS011;10667;51.056;3.732;2022-07-31T14:18:22;2.22;;;1.30;;
21018;SDS011;10667;51.056;3.732;2022-07-31T14:20:48;1.50;;;1.20;;
21018;SDS011;10667;51.056;3.732;2022-07-31T14:23:14;2.85;;;1.30;;
21018;SDS011;10667;51.056;3.732;2022-07-31T14:25:40;3.15;;;1.02;;
21018;SDS011;10667;51.056;3.732;2022-07-31T14:28:06;3.53;;;1.20;;
21018;SDS011;10667;51.056;3.732;2022-07-31T14:30:33;3.80;;;1.30;;
21018;SDS011;10667;51.056;3.732;2022-07-31T14:33:00;1.98;;;1.35;;
21018;SDS011;10667;51.056;3.732;2022-07-31T14:35:27;4.10;;;1.25;;
21018;SDS011;10667;51.056;3.732;2022-07-31T14:37:53;4.55;;;1.52;;
21018;SDS011;10667;51.056;3.732;2022-07-31T14:40:18;2.97;;;1.90;;
21018;SDS011;10667;51.056;3.732;2022-07-31T14:42:44;4.65;;;1.65;;
21018;SDS011;10667;51.056;3.732;2022-07-31T14:45:10;2.55;;;1.30;;
21018;SDS011;10667;51.056;3.732;2022-07-31T14:47:36;2.60;;;1.42;;
21018;SDS011;10667;51.056;3.732;2022-07-31T14:50:02;4.63;;;1.30;;
21018;SDS011;10667;51.056;3.732;2022-07-31T14:52:29;4.18;;;1.90;;
21018;SDS011;10667;51.056;3.732;2022-07-31T14:54:56;1.45;;;1.20;;
21018;SDS011;10667;51.056;3.732;2022-07-31T14:57:23;5.45;;;2.10;;
21018;SDS011;10667;51.056;3.732;2022-07-31T14:59:49;2.08;;;1.20;;
21018;SDS011;10667;51.056;3.732;2022-07-31T15:02:15;4.60;;;1.30;;
21018;SDS011;10667;51.056;3.732;2022-07-31T15:04:41;3.78;;;1.30;;
21018;SDS011;10667;51.056;3.732;2022-07-31T15:07:07;4.00;;;1.27;;
21018;SDS011;10667;51.056;3.732;2022-07-31T15:09:32;6.18;;;1.42;;
21018;SDS011;10667;51.056;3.732;2022-07-31T15:11:58;2.92;;;1.55;;